createdAt,value
2023-01-17T00:00:01.613Z,96649.00
2023-01-17T00:02:30.997Z,96638.41
2023-01-17T00:05:17.040Z,96656.38
2023-01-17T00:08:03.390Z,96644.78
2023-01-17T00:10:31.199Z,96631.03
2023-01-17T00:13:03.585Z,96624.25
2023-01-17T00:15:31.936Z,96631.25
2023-01-17T00:17:59.588Z,96598.09
2023-01-17T00:20:49.912Z,96612.44
2023-01-17T00:23:42.841Z,96607.84
2023-01-17T00:26:19.289Z,96620.00
2023-01-17T00:28:49.012Z,96642.00
2023-01-17T00:31:17.619Z,96634.81
2023-01-17T00:33:45.341Z,96630.63
2023-01-17T00:36:13.179Z,96637.00
2023-01-17T00:38:41.242Z,96617.22
2023-01-17T00:41:14.638Z,96629.00
2023-01-17T00:44:00.527Z,96611.03
2023-01-17T00:46:46.698Z,96608.00
2023-01-17T00:49:32.875Z,96618.63
2023-01-17T00:52:19.955Z,96598.66
2023-01-17T00:55:06.088Z,96611.66
2023-01-17T00:57:52.184Z,96603.09
2023-01-17T01:00:38.362Z,96601.91
2023-01-17T01:03:29.815Z,96606.84
2023-01-17T01:06:15.922Z,96605.06
2023-01-17T01:09:01.697Z,96613.63
2023-01-17T01:11:47.501Z,96612.28
2023-01-17T01:14:33.359Z,96619.06
2023-01-17T01:17:19.372Z,96594.09
2023-01-17T01:20:05.255Z,96592.31
2023-01-17T01:22:51.386Z,96617.06
2023-01-17T01:25:37.428Z,96615.88
2023-01-17T01:28:32.557Z,96616.06
2023-01-17T01:31:23.641Z,96610.09
2023-01-17T01:33:53.179Z,96620.84
2023-01-17T01:36:21.453Z,96629.03
2023-01-17T01:38:50.288Z,96632.00
2023-01-17T01:41:18.321Z,96651.38
2023-01-17T01:43:54.343Z,96659.53
2023-01-17T01:46:41.264Z,96652.34
2023-01-17T01:49:24.788Z,96642.81
2023-01-17T01:52:00.622Z,96649.59
2023-01-17T01:54:57.327Z,96638.22
2023-01-17T01:57:32.049Z,96646.41
2023-01-17T02:00:15.767Z,96657.56
2023-01-17T02:02:46.803Z,96649.00
2023-01-17T02:05:18.028Z,96649.19
2023-01-17T02:08:03.473Z,96650.00
2023-01-17T02:10:34.956Z,96636.19
2023-01-17T02:13:03.681Z,96624.81
2023-01-17T02:16:18.873Z,96626.44
2023-01-17T02:18:53.967Z,96619.81
2023-01-17T02:21:34.186Z,96636.00
2023-01-17T02:24:43.698Z,96638.00
2023-01-17T02:27:32.326Z,96627.63
2023-01-17T02:30:32.832Z,96622.81
2023-01-17T02:33:14.889Z,96632.03
2023-01-17T02:36:10.185Z,96624.63
2023-01-17T02:39:02.849Z,96634.41
2023-01-17T02:41:37.205Z,96644.78
2023-01-17T02:44:05.265Z,96659.56
2023-01-17T02:46:32.739Z,96656.75
2023-01-17T02:49:00.598Z,96657.34
2023-01-17T02:52:26.590Z,96669.75
2023-01-17T02:55:24.473Z,96676.72
2023-01-17T02:58:00.973Z,96688.50
2023-01-17T03:01:10.248Z,96688.31
2023-01-17T03:03:52.031Z,96695.09
2023-01-17T03:06:47.990Z,96703.88
2023-01-17T03:09:17.908Z,96715.25
2023-01-17T03:11:45.976Z,96713.84
2023-01-17T03:14:13.321Z,96707.88
2023-01-17T03:16:40.968Z,96717.44
2023-01-17T03:19:09.877Z,96721.41
2023-01-17T03:21:37.346Z,96724.59
2023-01-17T03:24:04.942Z,96740.38
2023-01-17T03:26:32.263Z,96741.94
2023-01-17T03:28:59.614Z,96742.53
2023-01-17T03:31:26.944Z,96747.53
2023-01-17T03:33:54.332Z,96736.56
2023-01-17T03:36:21.721Z,96732.97
2023-01-17T03:38:49.041Z,96748.16
2023-01-17T03:41:16.584Z,96741.97
2023-01-17T03:43:43.891Z,96741.16
2023-01-17T03:46:28.628Z,96767.75
2023-01-17T03:48:56.003Z,96772.72
2023-01-17T03:51:23.687Z,96771.34
2023-01-17T03:53:51.986Z,96791.28
2023-01-17T03:56:19.861Z,96820.63
2023-01-17T03:58:47.246Z,96823.19
2023-01-17T04:01:14.808Z,96817.84
2023-01-17T04:03:42.334Z,96820.44
2023-01-17T04:06:09.697Z,96825.56
2023-01-17T04:08:37.139Z,96820.00
2023-01-17T04:11:04.689Z,96813.59
2023-01-17T04:13:32.027Z,96823.16
2023-01-17T04:15:59.762Z,96828.56
2023-01-17T04:18:27.709Z,96822.97
2023-01-17T04:20:55.060Z,96823.16
2023-01-17T04:23:22.491Z,96831.72
2023-01-17T04:25:49.803Z,96839.25
2023-01-17T04:28:17.176Z,96836.78
2023-01-17T04:30:44.562Z,96833.56
2023-01-17T04:33:11.930Z,96838.53
2023-01-17T04:35:39.520Z,96842.16
2023-01-17T04:38:06.891Z,96842.31
2023-01-17T04:40:34.245Z,96846.69
2023-01-17T04:43:01.686Z,96850.28
2023-01-17T04:45:29.067Z,96851.28
2023-01-17T04:47:56.346Z,96862.66
2023-01-17T04:50:23.818Z,96861.66
2023-01-17T04:52:51.170Z,96861.69
2023-01-17T04:55:18.846Z,96867.28
2023-01-17T04:57:48.021Z,96859.88
2023-01-17T05:00:16.218Z,96858.06
2023-01-17T05:02:43.621Z,96855.44
2023-01-17T05:05:11.218Z,96842.03
2023-01-17T05:07:38.689Z,96849.19
2023-01-17T05:10:06.648Z,96852.72
2023-01-17T05:12:34.023Z,96853.28
2023-01-17T05:15:01.928Z,96861.00
2023-01-17T05:17:29.273Z,96865.00
2023-01-17T05:19:56.629Z,96865.34
2023-01-17T05:22:23.920Z,96872.94
2023-01-17T05:24:51.253Z,96869.53
2023-01-17T05:27:18.556Z,96858.56
2023-01-17T05:29:45.960Z,96871.13
2023-01-17T05:32:13.434Z,96875.53
2023-01-17T05:34:40.795Z,96867.75
2023-01-17T05:37:08.161Z,96863.56
2023-01-17T05:39:35.508Z,96868.13
2023-01-17T05:42:02.866Z,96871.75
2023-01-17T05:44:30.269Z,96866.31
2023-01-17T05:46:57.629Z,96867.22
2023-01-17T05:49:25.043Z,96878.78
2023-01-17T05:51:54.787Z,96872.16
2023-01-17T05:54:22.276Z,96886.09
2023-01-17T05:56:49.629Z,96892.38
2023-01-17T05:59:20.549Z,96897.84
2023-01-17T06:01:54.352Z,96895.72
2023-01-17T06:04:21.761Z,96900.94
2023-01-17T06:06:49.075Z,96909.97
2023-01-17T06:09:16.450Z,96908.00
2023-01-17T06:11:43.893Z,96912.78
2023-01-17T06:14:11.216Z,96913.59
2023-01-17T06:16:38.579Z,96911.19
2023-01-17T06:19:05.911Z,96911.00
2023-01-17T06:21:33.325Z,96919.41
2023-01-17T06:24:02.226Z,96908.25
2023-01-17T06:26:30.568Z,96898.47
2023-01-17T06:28:57.936Z,96906.69
2023-01-17T06:31:25.328Z,96895.31
2023-01-17T06:33:52.732Z,96918.44
2023-01-17T06:36:20.046Z,96909.91
2023-01-17T06:38:51.368Z,96903.38
2023-01-17T06:41:18.717Z,96899.22
2023-01-17T06:43:46.003Z,96904.06
2023-01-17T06:46:13.346Z,96898.94
2023-01-17T06:48:43.686Z,96897.94
2023-01-17T06:51:11.193Z,96908.44
2023-01-17T06:53:40.274Z,96905.94
2023-01-17T06:56:08.913Z,96906.50
2023-01-17T06:58:36.583Z,96888.47
2023-01-17T07:01:09.330Z,96886.69
2023-01-17T07:03:37.085Z,96896.97
2023-01-17T07:06:05.904Z,96909.03
2023-01-17T07:08:33.115Z,96939.44
2023-01-17T07:11:05.091Z,96938.69
2023-01-17T07:13:38.247Z,96941.69
2023-01-17T07:16:07.712Z,96950.78
2023-01-17T07:18:35.573Z,96946.78
2023-01-17T07:21:02.975Z,96943.38
2023-01-17T07:23:30.331Z,96935.97
2023-01-17T07:26:00.319Z,96967.94
2023-01-17T07:28:28.659Z,96958.00
2023-01-17T07:30:56.277Z,96954.75
2023-01-17T07:33:23.711Z,96973.13
2023-01-17T07:35:51.382Z,96979.34
2023-01-17T07:38:20.242Z,96981.28
2023-01-17T07:40:47.614Z,96991.66
2023-01-17T07:43:15.170Z,97005.44
2023-01-17T07:45:51.725Z,96994.50
2023-01-17T07:48:22.331Z,96995.28
2023-01-17T07:50:58.057Z,96999.09
2023-01-17T07:53:28.813Z,96991.13
2023-01-17T07:56:05.141Z,96992.44
2023-01-17T07:58:34.405Z,96999.03
2023-01-17T08:01:08.882Z,97001.91
2023-01-17T08:03:40.029Z,96987.69
2023-01-17T08:06:13.804Z,96989.66
2023-01-17T08:08:41.392Z,96993.38
2023-01-17T08:11:08.769Z,96991.59
2023-01-17T08:13:36.141Z,96984.84
2023-01-17T08:16:04.068Z,96991.50
2023-01-17T08:18:31.558Z,96984.91
2023-01-17T08:20:58.936Z,96987.72
2023-01-17T08:23:27.264Z,96979.53
2023-01-17T08:26:00.187Z,96979.25
2023-01-17T08:28:27.665Z,96977.72
2023-01-17T08:30:55.136Z,96969.78
2023-01-17T08:33:22.604Z,96957.06
2023-01-17T08:35:54.350Z,96966.47
2023-01-17T08:38:23.772Z,96962.38
2023-01-17T08:40:51.182Z,96947.44
2023-01-17T08:43:18.647Z,96955.09
2023-01-17T08:45:48.341Z,96947.88
2023-01-17T08:48:16.001Z,96938.72
2023-01-17T08:50:43.360Z,96948.06
2023-01-17T08:53:10.921Z,96955.78
2023-01-17T08:55:40.965Z,96944.63
2023-01-17T08:58:08.662Z,96942.53
2023-01-17T09:00:35.992Z,96931.44
2023-01-17T09:03:03.394Z,96914.34
2023-01-17T09:05:31.155Z,96906.16
2023-01-17T09:07:58.511Z,96912.22
2023-01-17T09:10:27.096Z,96904.00
2023-01-17T09:12:54.426Z,96903.06
2023-01-17T09:15:22.039Z,96898.81
2023-01-17T09:17:49.324Z,96900.63
2023-01-17T09:20:17.496Z,96910.44
2023-01-17T09:22:46.127Z,96903.56
2023-01-17T09:25:13.589Z,96903.94
2023-01-17T09:27:46.303Z,96888.72
2023-01-17T09:30:14.515Z,96882.59
2023-01-17T09:32:41.857Z,96883.97
2023-01-17T09:35:10.099Z,96884.66
2023-01-17T09:37:37.492Z,96898.00
2023-01-17T09:40:06.223Z,96897.03
2023-01-17T09:42:40.960Z,96884.75
2023-01-17T09:45:18.987Z,96872.97
2023-01-17T09:47:52.098Z,96903.69
2023-01-17T09:50:53.208Z,96897.91
2023-01-17T09:53:21.479Z,96901.50
2023-01-17T09:55:57.448Z,96901.91
2023-01-17T09:59:01.669Z,96883.00
2023-01-17T10:01:38.163Z,96903.38
2023-01-17T10:04:49.061Z,96870.31
2023-01-17T10:07:22.354Z,96861.97
2023-01-17T10:10:20.530Z,96854.69
2023-01-17T10:13:01.507Z,96856.09
2023-01-17T10:16:13.198Z,96847.88
2023-01-17T10:18:46.473Z,96836.25
2023-01-17T10:21:35.753Z,96838.03
2023-01-17T10:25:15.972Z,96839.97
2023-01-17T10:28:05.405Z,96823.63
2023-01-17T10:30:38.972Z,96811.66
2023-01-17T10:33:19.928Z,96802.44
2023-01-17T10:36:07.621Z,96783.25
2023-01-17T10:38:38.644Z,96791.03
2023-01-17T10:41:21.557Z,96796.97
2023-01-17T10:44:21.125Z,96792.22
2023-01-17T10:46:56.036Z,96777.06
2023-01-17T10:49:27.078Z,96765.63
2023-01-17T10:52:04.198Z,96765.88
2023-01-17T10:55:04.970Z,96778.31
2023-01-17T10:57:45.265Z,96764.13
2023-01-17T11:00:51.308Z,96749.72
2023-01-17T11:03:24.417Z,96741.59
2023-01-17T11:06:21.468Z,96723.66
2023-01-17T11:08:51.928Z,96733.53
2023-01-17T11:11:24.599Z,96719.44
2023-01-17T11:13:55.291Z,96692.84
2023-01-17T11:16:27.712Z,96701.22
2023-01-17T11:19:30.620Z,96690.38
2023-01-17T11:22:05.630Z,96682.75
2023-01-17T11:24:49.369Z,96673.13
2023-01-17T11:27:56.834Z,96657.19
2023-01-17T11:30:29.342Z,96658.19
2023-01-17T11:33:08.781Z,96660.31
2023-01-17T11:35:43.911Z,96666.09
2023-01-17T11:38:19.474Z,96639.72
2023-01-17T11:40:49.581Z,96648.31
2023-01-17T11:43:26.360Z,96642.59
2023-01-17T11:46:02.887Z,96640.47
2023-01-17T11:48:38.928Z,96629.50
2023-01-17T11:51:26.731Z,96631.47
2023-01-17T11:54:08.337Z,96620.69
2023-01-17T11:56:37.352Z,96599.81
2023-01-17T11:59:35.237Z,96617.00
2023-01-17T12:02:37.170Z,96604.97
2023-01-17T12:05:32.463Z,96593.69
2023-01-17T12:08:17.631Z,96586.66
2023-01-17T12:11:00.279Z,96569.44
2023-01-17T12:14:03.282Z,96559.97
2023-01-17T12:16:54.011Z,96550.81
2023-01-17T12:19:43.620Z,96553.34
2023-01-17T12:22:29.911Z,96563.03
2023-01-17T12:25:03.140Z,96546.13
2023-01-17T12:28:04.236Z,96545.69
2023-01-17T12:30:55.248Z,96529.78
2023-01-17T12:33:38.744Z,96518.13
2023-01-17T12:36:19.224Z,96515.84
2023-01-17T12:38:48.607Z,96511.00
2023-01-17T12:41:31.441Z,96506.25
2023-01-17T12:44:02.291Z,96500.91
2023-01-17T12:46:49.397Z,96496.88
2023-01-17T12:49:33.423Z,96504.31
2023-01-17T12:52:23.682Z,96493.63
2023-01-17T12:55:01.244Z,96485.66
2023-01-17T12:57:43.911Z,96487.34
2023-01-17T13:00:23.072Z,96476.03
2023-01-17T13:03:04.539Z,96467.84
2023-01-17T13:05:45.943Z,96470.47
2023-01-17T13:08:50.451Z,96454.16
2023-01-17T13:11:30.259Z,96453.50
2023-01-17T13:13:59.807Z,96428.66
2023-01-17T13:16:48.256Z,96417.28
2023-01-17T13:19:40.877Z,96425.28
2023-01-17T13:22:21.822Z,96432.97
2023-01-17T13:25:26.831Z,96424.16
2023-01-17T13:28:36.056Z,96415.81
2023-01-17T13:31:26.782Z,96390.84
2023-01-17T13:34:36.135Z,96389.56
2023-01-17T13:37:30.713Z,96390.28
2023-01-17T13:40:43.597Z,96386.81
2023-01-17T13:43:21.819Z,96390.38
2023-01-17T13:45:56.584Z,96380.38
2023-01-17T13:48:26.684Z,96369.59
2023-01-17T13:50:57.474Z,96367.75
2023-01-17T13:53:33.994Z,96352.78
2023-01-17T13:56:10.164Z,96330.38
2023-01-17T13:58:50.397Z,96326.41
2023-01-17T14:01:24.142Z,96322.81
2023-01-17T14:03:54.757Z,96320.97
2023-01-17T14:06:44.797Z,96308.72
2023-01-17T14:09:42.430Z,96299.56
2023-01-17T14:12:14.233Z,96282.28
2023-01-17T14:14:41.778Z,96278.88
2023-01-17T14:17:28.182Z,96277.84
2023-01-17T14:20:25.594Z,96272.72
2023-01-17T14:22:56.024Z,96230.09
2023-01-17T14:25:28.703Z,96235.63
2023-01-17T14:28:02.574Z,96234.28
2023-01-17T14:30:39.577Z,96240.81
2023-01-17T14:33:30.015Z,96223.81
2023-01-17T14:36:03.268Z,96236.16
2023-01-17T14:38:33.547Z,96234.59
2023-01-17T14:41:07.564Z,96247.84
2023-01-17T14:43:40.763Z,96235.78
2023-01-17T14:46:23.031Z,96230.44
2023-01-17T14:48:58.605Z,96218.13
2023-01-17T14:51:26.179Z,96203.09
2023-01-17T14:53:55.854Z,96206.38
2023-01-17T14:56:26.099Z,96192.44
2023-01-17T14:59:16.908Z,96213.88
2023-01-17T15:02:06.347Z,96192.38
2023-01-17T15:04:39.345Z,96187.13
2023-01-17T15:07:15.816Z,96188.50
2023-01-17T15:09:44.714Z,96183.44
2023-01-17T15:12:16.685Z,96188.44
2023-01-17T15:14:46.647Z,96205.16
2023-01-17T15:17:26.192Z,96194.44
2023-01-17T15:20:17.203Z,96178.69
2023-01-17T15:22:45.197Z,96177.91
2023-01-17T15:25:14.262Z,96176.06
2023-01-17T15:27:42.884Z,96174.06
2023-01-17T15:30:15.607Z,96165.91
2023-01-17T15:32:47.895Z,96177.34
2023-01-17T15:35:20.252Z,96163.34
2023-01-17T15:37:54.245Z,96142.03
2023-01-17T15:40:25.540Z,96158.47
2023-01-17T15:43:01.049Z,96161.69
2023-01-17T15:45:33.334Z,96170.13
2023-01-17T15:48:45.730Z,96170.84
2023-01-17T15:51:13.662Z,96158.72
2023-01-17T15:53:42.973Z,96168.09
2023-01-17T15:56:33.260Z,96172.66
2023-01-17T15:59:36.289Z,96154.13
2023-01-17T16:02:03.917Z,96137.97
2023-01-17T16:04:37.264Z,96150.03
2023-01-17T16:07:34.194Z,96147.09
2023-01-17T16:10:17.670Z,96147.59
2023-01-17T16:12:46.686Z,96158.72
2023-01-17T16:15:17.560Z,96144.09
2023-01-17T16:17:49.957Z,96144.22
2023-01-17T16:20:25.397Z,96134.59
2023-01-17T16:22:53.078Z,96145.53
2023-01-17T16:25:23.433Z,96153.50
2023-01-17T16:27:52.473Z,96143.84
2023-01-17T16:30:24.188Z,96139.44
2023-01-17T16:32:52.213Z,96135.09
2023-01-17T16:35:23.272Z,96145.78
2023-01-17T16:37:53.117Z,96118.22
2023-01-17T16:40:24.177Z,96129.22
2023-01-17T16:42:51.959Z,96123.50
2023-01-17T16:45:19.530Z,96136.25
2023-01-17T16:47:48.124Z,96134.59
2023-01-17T16:50:20.317Z,96124.94
2023-01-17T16:52:52.367Z,96119.13
2023-01-17T16:55:24.276Z,96105.38
2023-01-17T16:57:56.396Z,96105.38
2023-01-17T17:00:24.705Z,96096.94
2023-01-17T17:02:53.604Z,96087.28
2023-01-17T17:05:20.991Z,96074.72
2023-01-17T17:07:50.864Z,96075.19
2023-01-17T17:10:21.940Z,96082.88
2023-01-17T17:12:49.350Z,96077.63
2023-01-17T17:15:16.718Z,96081.22
2023-01-17T17:17:44.095Z,96077.22
2023-01-17T17:20:14.743Z,96080.09
2023-01-17T17:22:48.881Z,96084.31
2023-01-17T17:25:16.741Z,96071.44
2023-01-17T17:27:44.091Z,96078.69
2023-01-17T17:30:12.728Z,96073.47
2023-01-17T17:32:40.148Z,96072.88
2023-01-17T17:35:08.107Z,96082.28
2023-01-17T17:37:35.517Z,96071.81
2023-01-17T17:40:04.481Z,96053.31
2023-01-17T17:42:32.014Z,96061.66
2023-01-17T17:44:59.383Z,96086.75
2023-01-17T17:47:26.829Z,96070.44
2023-01-17T17:49:54.112Z,96065.34
2023-01-17T17:52:21.404Z,96072.53
2023-01-17T17:54:49.275Z,96072.22
2023-01-17T17:57:16.567Z,96063.84
2023-01-17T17:59:43.881Z,96036.34
2023-01-17T18:02:11.885Z,96036.44
2023-01-17T18:04:39.248Z,96018.31
2023-01-17T18:07:06.611Z,96003.63
2023-01-17T18:09:34.059Z,96021.16
2023-01-17T18:12:02.841Z,95974.63
2023-01-17T18:14:30.243Z,96010.50
2023-01-17T18:16:57.593Z,96027.00
2023-01-17T18:19:26.503Z,96029.00
2023-01-17T18:21:53.983Z,96003.13
2023-01-17T18:24:24.073Z,96018.78
2023-01-17T18:26:56.841Z,95994.34
2023-01-17T18:29:26.939Z,95998.50
2023-01-17T18:31:55.060Z,95988.47
2023-01-17T18:34:29.038Z,95985.03
2023-01-17T18:36:57.343Z,95983.47
2023-01-17T18:39:29.730Z,96003.06
2023-01-17T18:41:58.005Z,95987.88
2023-01-17T18:44:27.346Z,95977.41
2023-01-17T18:46:55.188Z,95979.03
2023-01-17T18:49:22.664Z,95983.41
2023-01-17T18:51:50.960Z,95968.94
2023-01-17T18:54:22.128Z,95980.38
2023-01-17T18:56:49.635Z,95972.56
2023-01-17T18:59:21.440Z,95952.63
2023-01-17T19:01:49.804Z,95953.09
2023-01-17T19:04:17.497Z,95956.25
2023-01-17T19:06:47.917Z,95943.19
2023-01-17T19:09:16.721Z,95939.81
2023-01-17T19:11:45.130Z,95954.94
2023-01-17T19:14:13.213Z,95951.19
2023-01-17T19:16:41.887Z,95944.47
2023-01-17T19:19:14.272Z,95937.41
2023-01-17T19:21:42.183Z,95962.13
2023-01-17T19:24:13.024Z,95944.03
2023-01-17T19:26:41.821Z,95962.59
2023-01-17T19:29:09.312Z,95963.59
2023-01-17T19:31:43.649Z,95951.97
2023-01-17T19:34:13.896Z,95941.78
2023-01-17T19:36:42.447Z,95936.31
2023-01-17T19:39:09.923Z,95939.84
2023-01-17T19:41:43.733Z,95941.44
2023-01-17T19:44:13.771Z,95967.53
2023-01-17T19:46:41.874Z,95947.63
2023-01-17T19:49:10.550Z,95955.19
2023-01-17T19:51:39.655Z,95941.84
2023-01-17T19:54:08.274Z,95953.00
2023-01-17T19:56:36.035Z,95959.25
2023-01-17T19:59:03.740Z,95938.22
2023-01-17T20:01:34.033Z,95962.59
2023-01-17T20:04:03.465Z,95962.59
2023-01-17T20:06:35.637Z,95943.72
2023-01-17T20:09:05.277Z,95972.78
2023-01-17T20:11:32.989Z,95982.72
2023-01-17T20:14:00.681Z,95986.53
2023-01-17T20:16:31.003Z,95989.38
2023-01-17T20:18:59.525Z,95952.63
2023-01-17T20:21:28.588Z,95987.75
2023-01-17T20:23:58.886Z,96005.13
2023-01-17T20:26:36.359Z,96003.94
2023-01-17T20:29:10.566Z,96009.06
2023-01-17T20:31:40.662Z,96015.50
2023-01-17T20:34:11.529Z,96031.59
2023-01-17T20:36:42.084Z,96054.88
2023-01-17T20:39:14.271Z,96050.28
2023-01-17T20:41:44.832Z,96049.34
2023-01-17T20:44:15.541Z,96037.13
2023-01-17T20:46:43.681Z,96056.56
2023-01-17T20:49:19.369Z,96072.56
2023-01-17T20:51:47.575Z,96077.41
2023-01-17T20:54:17.693Z,96083.22
2023-01-17T20:56:47.509Z,96106.13
2023-01-17T20:59:19.179Z,96117.56
2023-01-17T21:01:47.049Z,96118.41
2023-01-17T21:04:15.169Z,96102.50
2023-01-17T21:06:44.184Z,96100.31
2023-01-17T21:09:15.077Z,96097.22
2023-01-17T21:11:42.903Z,96102.25
2023-01-17T21:14:10.314Z,96087.53
2023-01-17T21:16:38.138Z,96093.50
2023-01-17T21:19:06.097Z,96094.84
2023-01-17T21:21:33.491Z,96111.03
2023-01-17T21:24:00.971Z,96103.34
2023-01-17T21:26:28.976Z,96107.97
2023-01-17T21:29:00.117Z,96092.09
2023-01-17T21:31:33.508Z,96097.34
2023-01-17T21:34:07.189Z,96108.94
2023-01-17T21:36:39.133Z,96102.50
2023-01-17T21:39:19.100Z,96128.47
2023-01-17T21:41:50.669Z,96142.53
2023-01-17T21:44:23.374Z,96148.22
2023-01-17T21:46:56.391Z,96148.78
2023-01-17T21:49:24.556Z,96153.28
2023-01-17T21:51:54.919Z,96178.09
2023-01-17T21:54:47.413Z,96192.34
2023-01-17T21:57:38.919Z,96193.72
2023-01-17T22:00:15.801Z,96192.50
2023-01-17T22:02:48.168Z,96187.44
2023-01-17T22:05:16.907Z,96189.81
2023-01-17T22:08:05.070Z,96182.44
2023-01-17T22:10:33.181Z,96193.75
2023-01-17T22:13:00.704Z,96200.19
2023-01-17T22:15:28.060Z,96195.44
2023-01-17T22:17:55.712Z,96189.41
2023-01-17T22:20:23.343Z,96192.97
2023-01-17T22:22:50.667Z,96186.31
2023-01-17T22:25:17.961Z,96173.25
2023-01-17T22:27:45.560Z,96179.78
2023-01-17T22:30:13.430Z,96174.81
2023-01-17T22:32:41.112Z,96180.63
2023-01-17T22:35:09.467Z,96192.00
2023-01-17T22:37:36.729Z,96183.47
2023-01-17T22:40:05.911Z,96190.13
2023-01-17T22:42:34.595Z,96202.47
2023-01-17T22:45:02.129Z,96201.13
2023-01-17T22:47:30.157Z,96199.47
2023-01-17T22:49:57.508Z,96199.06
2023-01-17T22:52:25.210Z,96205.50
2023-01-17T22:54:52.834Z,96220.97
2023-01-17T22:57:20.162Z,96210.31
2023-01-17T22:59:47.692Z,96195.59
2023-01-17T23:02:16.545Z,96204.56
2023-01-17T23:04:44.889Z,96200.56
2023-01-17T23:07:12.255Z,96194.56
2023-01-17T23:09:39.566Z,96195.19
2023-01-17T23:12:07.295Z,96189.00
2023-01-17T23:14:54.792Z,96186.63
2023-01-17T23:17:43.092Z,96172.44
2023-01-17T23:20:11.553Z,96185.59
2023-01-17T23:22:38.802Z,96176.03
2023-01-17T23:25:13.114Z,96177.31
2023-01-17T23:28:04.111Z,96183.16
2023-01-17T23:30:40.278Z,96192.19
2023-01-17T23:33:17.023Z,96186.41
2023-01-17T23:35:46.391Z,96189.97
2023-01-17T23:38:29.469Z,96194.41
2023-01-17T23:41:25.856Z,96190.84
2023-01-17T23:43:56.153Z,96186.97
2023-01-17T23:46:25.963Z,96186.97
2023-01-17T23:48:54.816Z,96176.97
2023-01-17T23:51:22.389Z,96175.88
2023-01-17T23:53:52.121Z,96174.28
2023-01-17T23:56:23.162Z,96184.91
2023-01-17T23:58:50.800Z,96191.88
